createdAt,value
2018-10-16T00:00:36.537Z,64.20
2018-10-16T00:03:04.077Z,64.30
2018-10-16T00:05:31.477Z,64.30
2018-10-16T00:07:58.955Z,64.40
2018-10-16T00:10:32.116Z,64.40
2018-10-16T00:12:59.584Z,64.50
2018-10-16T00:15:26.993Z,64.90
2018-10-16T00:17:54.459Z,64.30
2018-10-16T00:20:22.028Z,64.60
2018-10-16T00:22:49.512Z,65.00
2018-10-16T00:25:17.557Z,64.60
2018-10-16T00:27:45.106Z,64.60
2018-10-16T00:30:12.601Z,64.90
2018-10-16T00:32:40.879Z,63.80
2018-10-16T00:35:08.460Z,63.90
2018-10-16T00:37:36.062Z,63.70
2018-10-16T00:40:03.589Z,63.90
2018-10-16T00:42:31.017Z,63.90
2018-10-16T00:44:58.445Z,64.10
2018-10-16T00:47:25.812Z,64.10
2018-10-16T00:49:53.352Z,64.20
2018-10-16T00:52:20.796Z,64.30
2018-10-16T00:54:48.304Z,64.40
2018-10-16T00:57:15.783Z,64.50
2018-10-16T00:59:43.233Z,64.30
2018-10-16T01:02:10.671Z,64.30
2018-10-16T01:04:38.110Z,64.70
2018-10-16T01:07:05.631Z,64.70
2018-10-16T01:09:33.149Z,65.00
2018-10-16T01:12:00.622Z,65.00
2018-10-16T01:14:28.198Z,65.10
2018-10-16T01:16:55.631Z,65.60
2018-10-16T01:19:23.017Z,65.80
2018-10-16T01:21:50.584Z,66.50
2018-10-16T01:24:18.091Z,66.50
2018-10-16T01:26:45.540Z,66.30
2018-10-16T01:29:12.982Z,65.90
2018-10-16T01:31:40.418Z,65.70
2018-10-16T01:34:07.882Z,65.60
2018-10-16T01:36:35.299Z,65.50
2018-10-16T01:39:03.109Z,65.50
2018-10-16T01:41:30.521Z,66.40
2018-10-16T01:43:57.968Z,66.50
2018-10-16T01:46:25.422Z,66.90
2018-10-16T01:48:52.848Z,66.70
2018-10-16T01:51:20.329Z,66.70
2018-10-16T01:53:47.794Z,66.70
2018-10-16T01:56:15.228Z,67.00
2018-10-16T01:58:42.588Z,66.90
2018-10-16T02:01:10.067Z,67.20
2018-10-16T02:03:37.566Z,67.70
2018-10-16T02:06:05.038Z,66.90
2018-10-16T02:08:32.463Z,67.00
2018-10-16T02:11:00.001Z,66.50
2018-10-16T02:13:27.423Z,66.60
2018-10-16T02:15:54.849Z,66.60
2018-10-16T02:18:22.319Z,66.90
2018-10-16T02:20:49.738Z,66.90
2018-10-16T02:23:17.242Z,67.00
2018-10-16T02:25:44.713Z,67.30
2018-10-16T02:28:12.149Z,67.10
2018-10-16T02:30:39.603Z,66.70
2018-10-16T02:33:07.131Z,66.30
2018-10-16T02:35:34.526Z,66.90
2018-10-16T02:38:01.994Z,66.60
2018-10-16T02:40:29.488Z,66.70
2018-10-16T02:42:56.903Z,66.50
2018-10-16T02:45:24.286Z,66.10
2018-10-16T02:47:51.699Z,66.00
2018-10-16T02:50:19.301Z,65.80
2018-10-16T02:52:46.755Z,66.80
2018-10-16T02:55:14.130Z,66.70
2018-10-16T02:57:41.554Z,67.00
2018-10-16T03:00:09.029Z,67.20
2018-10-16T03:02:36.455Z,67.60
2018-10-16T03:05:04.389Z,67.30
2018-10-16T03:07:31.811Z,67.30
2018-10-16T03:09:59.279Z,67.20
2018-10-16T03:12:26.778Z,67.40
2018-10-16T03:14:54.308Z,67.30
2018-10-16T03:17:21.808Z,67.20
2018-10-16T03:19:49.219Z,67.10
2018-10-16T03:22:16.624Z,67.30
2018-10-16T03:24:44.138Z,67.60
2018-10-16T03:27:11.553Z,68.70
2018-10-16T03:29:38.997Z,68.20
2018-10-16T03:32:06.485Z,68.20
2018-10-16T03:34:33.908Z,68.20
2018-10-16T03:37:01.402Z,68.50
2018-10-16T03:39:28.909Z,68.50
2018-10-16T03:41:56.468Z,68.60
2018-10-16T03:44:23.883Z,68.40
2018-10-16T03:46:51.318Z,68.30
2018-10-16T03:49:18.751Z,68.30
2018-10-16T03:51:46.189Z,68.30
2018-10-16T03:54:13.747Z,68.20
2018-10-16T03:56:41.260Z,67.50
2018-10-16T03:59:08.711Z,67.50
2018-10-16T04:01:36.137Z,67.70
2018-10-16T04:04:03.605Z,67.60
2018-10-16T04:06:31.046Z,67.10
2018-10-16T04:08:58.428Z,67.50
2018-10-16T04:11:25.844Z,67.40
2018-10-16T04:13:53.332Z,66.90
2018-10-16T04:16:20.790Z,66.40
2018-10-16T04:18:48.327Z,66.50
2018-10-16T04:21:15.806Z,66.80
2018-10-16T04:23:43.509Z,66.60
2018-10-16T04:26:11.569Z,66.80
2018-10-16T04:28:39.075Z,66.70
2018-10-16T04:31:07.561Z,66.70
2018-10-16T04:33:34.980Z,66.80
2018-10-16T04:36:02.427Z,67.50
2018-10-16T04:38:29.929Z,66.20
2018-10-16T04:40:57.322Z,66.50
2018-10-16T04:43:24.813Z,66.90
2018-10-16T04:45:52.293Z,67.90
2018-10-16T04:48:19.805Z,66.90
2018-10-16T04:50:47.209Z,66.60
2018-10-16T04:53:14.711Z,66.40
2018-10-16T04:55:42.223Z,66.70
2018-10-16T04:58:09.692Z,67.40
2018-10-16T05:00:37.203Z,67.30
2018-10-16T05:03:05.209Z,67.20
2018-10-16T05:05:32.689Z,67.10
2018-10-16T05:08:00.181Z,67.10
2018-10-16T05:10:27.608Z,67.90
2018-10-16T05:12:55.109Z,68.20
2018-10-16T05:15:32.922Z,68.10
2018-10-16T05:18:00.685Z,68.20
2018-10-16T05:20:28.201Z,68.30
2018-10-16T05:22:56.526Z,67.90
2018-10-16T05:25:24.824Z,68.70
2018-10-16T05:27:52.232Z,68.80
2018-10-16T05:30:19.693Z,68.40
2018-10-16T05:32:47.081Z,68.40
2018-10-16T05:35:14.582Z,68.50
2018-10-16T05:37:42.057Z,68.00
2018-10-16T05:40:10.200Z,68.00
2018-10-16T05:42:38.308Z,67.70
2018-10-16T05:45:07.186Z,68.00
2018-10-16T05:47:34.739Z,68.90
2018-10-16T05:50:02.264Z,68.40
2018-10-16T05:52:29.687Z,68.30
2018-10-16T05:54:57.233Z,68.60
2018-10-16T05:57:24.840Z,68.80
2018-10-16T05:59:55.767Z,68.60
2018-10-16T06:02:23.208Z,68.80
2018-10-16T06:04:50.696Z,68.90
2018-10-16T06:07:18.161Z,68.70
2018-10-16T06:09:45.693Z,69.10
2018-10-16T06:12:13.280Z,69.10
2018-10-16T06:14:40.789Z,69.30
2018-10-16T06:17:08.247Z,69.50
2018-10-16T06:19:35.845Z,69.70
2018-10-16T06:22:03.374Z,69.60
2018-10-16T06:24:30.873Z,70.10
2018-10-16T06:26:58.252Z,69.30
2018-10-16T06:29:25.730Z,69.20
2018-10-16T06:31:53.213Z,68.70
2018-10-16T06:34:20.783Z,69.50
2018-10-16T06:36:48.439Z,69.30
2018-10-16T06:39:15.867Z,69.00
2018-10-16T06:41:43.479Z,68.80
2018-10-16T06:44:10.851Z,68.80
2018-10-16T06:46:39.359Z,68.80
2018-10-16T06:49:06.799Z,69.00
2018-10-16T06:51:34.317Z,68.80
2018-10-16T06:54:01.698Z,69.20
2018-10-16T06:56:29.185Z,69.80
2018-10-16T06:58:56.680Z,70.10
2018-10-16T07:01:24.147Z,70.70
2018-10-16T07:03:51.588Z,71.40
2018-10-16T07:06:19.043Z,71.70
2018-10-16T07:08:46.603Z,71.90
2018-10-16T07:11:14.034Z,72.70
2018-10-16T07:13:41.498Z,72.00
2018-10-16T07:16:08.953Z,72.60
2018-10-16T07:18:36.446Z,71.40
2018-10-16T07:21:03.911Z,71.20
2018-10-16T07:23:31.496Z,71.30
2018-10-16T07:25:58.853Z,71.20
2018-10-16T07:28:26.368Z,71.30
2018-10-16T07:30:53.812Z,71.10
2018-10-16T07:33:21.323Z,71.80
2018-10-16T07:35:48.729Z,71.90
2018-10-16T07:38:16.348Z,72.30
2018-10-16T07:40:43.675Z,72.20
2018-10-16T07:43:11.148Z,71.60
2018-10-16T07:45:38.632Z,71.00
2018-10-16T07:48:06.081Z,70.30
2018-10-16T07:50:33.569Z,71.20
2018-10-16T07:53:01.152Z,70.10
2018-10-16T07:55:28.573Z,70.00
2018-10-16T07:57:55.957Z,70.10
2018-10-16T08:00:23.545Z,71.10
2018-10-16T08:02:51.078Z,73.70
2018-10-16T08:05:18.524Z,73.60
2018-10-16T08:07:46.023Z,73.60
2018-10-16T08:10:13.828Z,74.20
2018-10-16T08:12:41.831Z,74.20
2018-10-16T08:15:09.994Z,76.50
2018-10-16T08:17:37.562Z,75.70
2018-10-16T08:20:05.232Z,75.90
2018-10-16T08:22:32.656Z,76.70
2018-10-16T08:25:00.069Z,76.90
2018-10-16T08:27:27.493Z,76.60
2018-10-16T08:29:54.909Z,77.80
2018-10-16T08:32:22.519Z,77.40
2018-10-16T08:34:49.883Z,77.60
2018-10-16T08:37:26.913Z,76.60
2018-10-16T08:39:57.197Z,75.70
2018-10-16T08:43:37.973Z,75.20
2018-10-16T08:46:17.039Z,74.80
2018-10-16T08:48:55.996Z,73.80
2018-10-16T08:51:36.958Z,72.20
2018-10-16T08:54:04.741Z,73.40
2018-10-16T08:56:32.268Z,72.90
2018-10-16T08:59:00.015Z,71.90
2018-10-16T09:01:27.521Z,70.30
2018-10-16T09:03:55.048Z,69.60
2018-10-16T09:06:22.531Z,70.00
2018-10-16T09:08:49.977Z,70.30
2018-10-16T09:11:17.444Z,69.80
2018-10-16T09:13:44.997Z,68.90
2018-10-16T09:16:12.454Z,67.10
2018-10-16T09:18:39.975Z,66.70
2018-10-16T09:21:07.505Z,68.10
2018-10-16T09:23:35.103Z,65.60
2018-10-16T09:26:02.620Z,64.90
2018-10-16T09:28:30.091Z,65.60
2018-10-16T09:30:57.609Z,64.10
2018-10-16T09:33:25.023Z,64.00
2018-10-16T09:35:52.499Z,63.50
2018-10-16T09:38:19.936Z,63.40
2018-10-16T09:40:47.411Z,63.10
2018-10-16T09:43:14.904Z,62.60
2018-10-16T09:45:42.425Z,62.40
2018-10-16T09:48:09.904Z,62.50
2018-10-16T09:50:37.361Z,61.70
2018-10-16T09:53:05.329Z,62.20
2018-10-16T09:55:32.857Z,62.00
2018-10-16T09:58:00.259Z,62.60
2018-10-16T10:00:33.312Z,61.40
2018-10-16T10:03:00.772Z,60.90
2018-10-16T10:05:28.343Z,61.70
2018-10-16T10:07:55.822Z,60.00
2018-10-16T10:10:23.357Z,60.80
2018-10-16T10:12:50.804Z,60.60
2018-10-16T10:15:18.305Z,60.10
2018-10-16T10:17:45.711Z,60.30
2018-10-16T10:20:13.240Z,59.80
2018-10-16T10:22:40.683Z,60.50
2018-10-16T10:25:08.141Z,59.70
2018-10-16T10:27:35.541Z,59.20
2018-10-16T10:30:03.680Z,59.30
2018-10-16T10:32:31.590Z,58.70
2018-10-16T10:34:59.209Z,59.00
2018-10-16T10:37:26.633Z,59.30
2018-10-16T10:39:54.110Z,58.20
2018-10-16T10:42:21.758Z,58.40
2018-10-16T10:44:49.401Z,57.60
2018-10-16T10:47:16.867Z,58.20
2018-10-16T10:49:44.293Z,58.70
2018-10-16T10:52:11.750Z,58.60
2018-10-16T10:54:39.191Z,57.30
2018-10-16T10:57:07.361Z,57.20
2018-10-16T10:59:34.702Z,57.50
2018-10-16T11:02:02.976Z,58.10
2018-10-16T11:04:30.493Z,57.20
2018-10-16T11:06:57.986Z,56.80
2018-10-16T11:09:25.355Z,57.30
2018-10-16T11:11:53.665Z,57.10
2018-10-16T11:14:21.170Z,55.80
2018-10-16T11:16:48.646Z,55.80
2018-10-16T11:19:16.121Z,55.90
2018-10-16T11:21:43.615Z,55.60
2018-10-16T11:24:11.098Z,55.00
2018-10-16T11:26:38.484Z,54.50
2018-10-16T11:29:06.478Z,54.40
2018-10-16T11:31:33.891Z,54.70
2018-10-16T11:34:01.383Z,54.40
2018-10-16T11:36:28.870Z,53.90
2018-10-16T11:38:56.425Z,54.20
2018-10-16T11:41:23.868Z,54.10
2018-10-16T11:43:51.351Z,54.00
2018-10-16T11:46:18.951Z,53.70
2018-10-16T11:48:46.467Z,54.30
2018-10-16T11:51:13.974Z,54.40
2018-10-16T11:53:41.468Z,53.80
2018-10-16T11:56:08.938Z,53.10
2018-10-16T11:58:36.355Z,53.50
2018-10-16T12:01:03.828Z,52.70
2018-10-16T12:03:31.312Z,53.20
2018-10-16T12:05:58.913Z,52.70
2018-10-16T12:08:26.323Z,52.90
2018-10-16T12:10:53.829Z,52.50
2018-10-16T12:13:21.403Z,52.10
2018-10-16T12:15:48.754Z,52.10
2018-10-16T12:18:26.033Z,52.10
2018-10-16T12:21:00.740Z,52.50
2018-10-16T12:23:28.159Z,52.30
2018-10-16T12:25:55.642Z,53.70
2018-10-16T12:28:23.138Z,52.70
2018-10-16T12:30:50.674Z,52.40
2018-10-16T12:33:18.152Z,51.40
2018-10-16T12:35:45.633Z,52.00
2018-10-16T12:38:13.003Z,52.20
2018-10-16T12:40:40.502Z,51.70
2018-10-16T12:43:07.927Z,51.60
2018-10-16T12:45:35.332Z,51.00
2018-10-16T12:48:02.754Z,51.40
2018-10-16T12:50:30.332Z,52.00
2018-10-16T12:52:57.715Z,53.10
2018-10-16T12:55:25.072Z,51.40
2018-10-16T12:57:52.549Z,51.50
2018-10-16T13:00:20.021Z,52.20
2018-10-16T13:02:47.429Z,51.80
2018-10-16T13:05:14.990Z,51.90
2018-10-16T13:07:42.361Z,51.50
2018-10-16T13:10:12.166Z,51.50
2018-10-16T13:12:40.043Z,51.40
2018-10-16T13:15:08.883Z,53.30
2018-10-16T13:17:36.396Z,51.50
2018-10-16T13:20:04.336Z,50.30
2018-10-16T13:22:31.791Z,50.40
2018-10-16T13:24:59.262Z,51.50
2018-10-16T13:27:26.749Z,52.20
2018-10-16T13:29:54.229Z,50.10
2018-10-16T13:32:21.633Z,50.00
2018-10-16T13:34:49.105Z,50.50
2018-10-16T13:37:16.515Z,50.40
2018-10-16T13:39:44.219Z,50.40
2018-10-16T13:42:11.637Z,50.10
2018-10-16T13:44:39.118Z,51.70
2018-10-16T13:47:06.589Z,50.30
2018-10-16T13:49:33.990Z,51.30
2018-10-16T13:52:01.453Z,52.40
2018-10-16T13:54:28.884Z,52.60
2018-10-16T13:56:56.312Z,51.00
2018-10-16T13:59:23.712Z,50.40
2018-10-16T14:01:51.203Z,50.60
2018-10-16T14:04:18.625Z,51.80
2018-10-16T14:06:46.046Z,49.50
2018-10-16T14:09:13.392Z,51.90
2018-10-16T14:11:40.811Z,49.40
2018-10-16T14:14:08.299Z,49.60
2018-10-16T14:16:35.850Z,51.20
2018-10-16T14:19:03.266Z,49.50
2018-10-16T14:21:30.776Z,50.60
2018-10-16T14:23:58.142Z,48.70
2018-10-16T14:26:25.622Z,49.50
2018-10-16T14:28:53.125Z,49.30
2018-10-16T14:31:20.536Z,49.60
2018-10-16T14:33:48.078Z,49.80
2018-10-16T14:36:15.426Z,51.00
2018-10-16T14:38:42.891Z,50.10
2018-10-16T14:41:10.412Z,49.80
2018-10-16T14:43:37.869Z,50.90
2018-10-16T14:46:05.547Z,49.90
2018-10-16T14:48:32.974Z,49.80
2018-10-16T14:51:00.327Z,50.20
2018-10-16T14:53:27.757Z,50.00
2018-10-16T14:55:55.171Z,49.60
2018-10-16T14:58:22.644Z,49.80
2018-10-16T15:00:50.019Z,50.50
2018-10-16T15:03:17.488Z,51.40
2018-10-16T15:05:44.941Z,51.40
2018-10-16T15:08:12.483Z,51.50
2018-10-16T15:10:39.875Z,51.50
2018-10-16T15:13:07.312Z,51.50
2018-10-16T15:15:34.931Z,51.20
2018-10-16T15:18:02.394Z,51.30
2018-10-16T15:20:29.743Z,51.30
2018-10-16T15:22:57.178Z,51.10
2018-10-16T15:25:24.636Z,51.40
2018-10-16T15:27:52.038Z,51.50
2018-10-16T15:30:19.557Z,51.90
2018-10-16T15:32:46.983Z,52.20
2018-10-16T15:35:14.404Z,52.40
2018-10-16T15:37:41.870Z,52.50
2018-10-16T15:40:10.465Z,53.80
2018-10-16T15:42:37.828Z,54.60
2018-10-16T15:45:06.974Z,55.20
2018-10-16T15:47:34.363Z,54.90
2018-10-16T15:50:01.924Z,56.10
2018-10-16T15:52:29.350Z,56.40
2018-10-16T15:54:56.917Z,56.40
2018-10-16T15:57:24.396Z,56.80
2018-10-16T15:59:51.900Z,56.90
2018-10-16T16:02:19.341Z,56.90
2018-10-16T16:04:46.763Z,56.80
2018-10-16T16:07:14.225Z,56.20
2018-10-16T16:09:41.657Z,56.20
2018-10-16T16:12:09.078Z,56.00
2018-10-16T16:14:36.492Z,55.80
2018-10-16T16:17:03.963Z,56.10
2018-10-16T16:19:31.382Z,56.30
2018-10-16T16:21:58.903Z,56.00
2018-10-16T16:24:26.380Z,55.90
2018-10-16T16:26:53.790Z,56.00
2018-10-16T16:29:21.307Z,55.90
2018-10-16T16:31:48.855Z,55.90
2018-10-16T16:34:16.222Z,55.80
2018-10-16T16:36:43.634Z,56.10
2018-10-16T16:39:12.566Z,56.10
2018-10-16T16:41:40.178Z,56.20
2018-10-16T16:44:07.712Z,56.60
2018-10-16T16:46:35.094Z,56.60
2018-10-16T16:49:02.597Z,56.40
2018-10-16T16:51:30.061Z,56.50
2018-10-16T16:53:57.562Z,56.80
2018-10-16T16:56:24.963Z,57.10
2018-10-16T16:58:52.369Z,57.10
2018-10-16T17:01:19.823Z,57.50
2018-10-16T17:03:47.268Z,57.40
2018-10-16T17:06:14.700Z,57.30
2018-10-16T17:08:42.180Z,57.50
2018-10-16T17:11:09.631Z,57.40
2018-10-16T17:13:37.132Z,57.40
2018-10-16T17:16:04.614Z,57.60
2018-10-16T17:18:32.017Z,57.70
2018-10-16T17:20:59.396Z,57.60
2018-10-16T17:23:26.790Z,57.80
2018-10-16T17:25:54.580Z,58.00
2018-10-16T17:28:21.775Z,58.20
2018-10-16T17:30:49.267Z,58.30
2018-10-16T17:33:16.766Z,58.50
2018-10-16T17:35:44.191Z,58.50
2018-10-16T17:38:11.724Z,58.70
2018-10-16T17:40:39.194Z,58.90
2018-10-16T17:43:06.594Z,58.80
2018-10-16T17:45:34.041Z,59.00
2018-10-16T17:48:01.519Z,59.00
2018-10-16T17:50:28.888Z,59.10
2018-10-16T17:52:56.279Z,59.10
2018-10-16T17:55:23.682Z,59.30
2018-10-16T17:57:51.179Z,59.30
2018-10-16T18:00:19.320Z,59.50
2018-10-16T18:02:46.822Z,59.50
2018-10-16T18:05:14.553Z,59.50
2018-10-16T18:07:42.560Z,59.40
2018-10-16T18:10:10.170Z,59.50
2018-10-16T18:12:37.832Z,59.60
2018-10-16T18:15:06.814Z,59.80
2018-10-16T18:17:34.271Z,59.90
2018-10-16T18:20:01.692Z,60.20
2018-10-16T18:22:29.112Z,60.30
2018-10-16T18:24:56.551Z,60.50
2018-10-16T18:27:24.042Z,60.50
2018-10-16T18:29:51.704Z,60.70
2018-10-16T18:32:19.092Z,60.80
2018-10-16T18:34:46.486Z,60.70
2018-10-16T18:37:13.933Z,60.80
2018-10-16T18:39:41.576Z,60.80
2018-10-16T18:42:08.879Z,61.60
2018-10-16T18:44:36.286Z,60.90
2018-10-16T18:47:03.818Z,60.80
2018-10-16T18:49:31.278Z,60.90
2018-10-16T18:51:58.728Z,61.10
2018-10-16T18:54:26.317Z,61.40
2018-10-16T18:56:53.694Z,61.60
2018-10-16T18:59:21.152Z,61.70
2018-10-16T19:01:48.636Z,61.80
2018-10-16T19:04:16.005Z,61.80
2018-10-16T19:06:43.429Z,62.30
2018-10-16T19:09:12.263Z,62.20
2018-10-16T19:11:40.093Z,62.40
2018-10-16T19:14:07.521Z,62.10
2018-10-16T19:16:35.791Z,62.00
2018-10-16T19:19:03.216Z,62.60
2018-10-16T19:21:30.853Z,62.50
2018-10-16T19:23:58.245Z,62.70
2018-10-16T19:26:25.734Z,63.00
2018-10-16T19:28:53.204Z,63.20
2018-10-16T19:31:20.563Z,63.20
2018-10-16T19:33:47.955Z,63.70
2018-10-16T19:36:15.358Z,64.10
2018-10-16T19:38:42.745Z,63.90
2018-10-16T19:41:10.150Z,64.00
2018-10-16T19:43:37.575Z,64.50
2018-10-16T19:46:05.095Z,64.10
2018-10-16T19:48:32.504Z,63.70
2018-10-16T19:51:00.016Z,63.80
2018-10-16T19:53:27.460Z,63.90
2018-10-16T19:55:54.799Z,63.90
2018-10-16T19:58:22.305Z,64.30
2018-10-16T20:00:49.658Z,64.60
2018-10-16T20:03:17.056Z,65.00
2018-10-16T20:05:44.387Z,64.80
2018-10-16T20:08:11.849Z,64.90
2018-10-16T20:10:39.358Z,65.00
2018-10-16T20:13:06.857Z,64.50
2018-10-16T20:15:34.347Z,64.70
2018-10-16T20:18:01.669Z,64.80
2018-10-16T20:20:29.247Z,64.70
2018-10-16T20:22:56.607Z,65.20
2018-10-16T20:25:24.211Z,65.30
2018-10-16T20:27:51.598Z,65.30
2018-10-16T20:30:18.960Z,65.40
2018-10-16T20:32:46.417Z,65.60
2018-10-16T20:35:13.913Z,65.10
2018-10-16T20:37:41.381Z,65.00
2018-10-16T20:40:09.029Z,65.40
2018-10-16T20:42:37.141Z,65.10
2018-10-16T20:45:04.645Z,64.70
2018-10-16T20:47:32.110Z,65.00
2018-10-16T20:49:59.490Z,64.90
2018-10-16T20:52:26.935Z,65.50
2018-10-16T20:54:54.338Z,65.80
2018-10-16T20:57:21.773Z,65.80
2018-10-16T20:59:49.375Z,66.30
2018-10-16T21:02:17.176Z,66.40
2018-10-16T21:04:44.649Z,66.30
2018-10-16T21:07:12.051Z,66.60
2018-10-16T21:09:39.468Z,66.70
2018-10-16T21:12:06.875Z,66.60
2018-10-16T21:14:34.248Z,66.40
2018-10-16T21:17:01.675Z,66.00
2018-10-16T21:19:29.159Z,66.20
2018-10-16T21:21:56.580Z,66.60
2018-10-16T21:24:24.177Z,66.70
2018-10-16T21:27:07.403Z,66.00
2018-10-16T21:29:35.030Z,66.40
2018-10-16T21:32:02.544Z,65.90
2018-10-16T21:34:30.077Z,66.00
2018-10-16T21:36:57.650Z,66.00
2018-10-16T21:39:25.083Z,64.90
2018-10-16T21:41:52.551Z,65.30
2018-10-16T21:44:20.612Z,65.00
2018-10-16T21:46:48.193Z,64.80
2018-10-16T21:49:15.644Z,65.30
2018-10-16T21:51:43.314Z,65.10
2018-10-16T21:54:10.944Z,65.50
2018-10-16T21:56:38.806Z,65.20
2018-10-16T21:59:06.303Z,66.10
2018-10-16T22:01:39.342Z,65.90
2018-10-16T22:04:06.750Z,66.00
2018-10-16T22:06:37.000Z,66.10
2018-10-16T22:09:10.969Z,67.10
2018-10-16T22:11:40.526Z,67.30
2018-10-16T22:14:08.853Z,67.80
2018-10-16T22:16:36.322Z,68.20
2018-10-16T22:19:04.083Z,68.10
2018-10-16T22:21:31.576Z,67.80
2018-10-16T22:23:59.140Z,67.70
2018-10-16T22:26:26.556Z,67.30
2018-10-16T22:28:54.124Z,66.90
2018-10-16T22:31:21.611Z,66.50
2018-10-16T22:33:49.044Z,66.10
2018-10-16T22:36:16.528Z,66.60
2018-10-16T22:38:43.957Z,66.10
2018-10-16T22:41:11.479Z,66.30
2018-10-16T22:43:38.815Z,66.80
2018-10-16T22:46:06.346Z,67.30
2018-10-16T22:48:33.912Z,67.20
2018-10-16T22:51:01.533Z,67.20
2018-10-16T22:53:29.606Z,66.80
2018-10-16T22:55:57.001Z,66.90
2018-10-16T22:58:24.437Z,66.40
2018-10-16T23:00:51.931Z,66.40
2018-10-16T23:03:19.364Z,66.20
2018-10-16T23:05:46.773Z,66.30
2018-10-16T23:08:14.204Z,67.10
2018-10-16T23:10:41.721Z,67.50
2018-10-16T23:13:09.267Z,66.60
2018-10-16T23:15:36.632Z,66.70
2018-10-16T23:18:04.682Z,67.00
2018-10-16T23:20:32.677Z,67.00
2018-10-16T23:23:00.128Z,66.90
2018-10-16T23:25:27.441Z,66.90
2018-10-16T23:27:54.802Z,67.90
2018-10-16T23:30:22.277Z,68.00
2018-10-16T23:32:49.692Z,68.50
2018-10-16T23:35:17.158Z,69.00
2018-10-16T23:37:44.589Z,69.00
2018-10-16T23:40:12.032Z,70.00
2018-10-16T23:42:39.767Z,70.80
2018-10-16T23:45:07.195Z,70.80
2018-10-16T23:47:34.589Z,70.30
2018-10-16T23:50:02.058Z,70.50
2018-10-16T23:52:29.399Z,69.50
2018-10-16T23:54:56.862Z,70.20
2018-10-16T23:57:24.313Z,69.40
2018-10-16T23:59:51.853Z,68.70
